TimeEST,TemperatureF,Dew PointF,Humidity,Sea Level PressureIn,VisibilityMPH,Wind Direction,Wind SpeedMPH,Gust SpeedMPH,PrecipitationIn,Events,Conditions,WindDirDegrees,DateUTC
12:53 AM,30.0,18.0,61,30.00,10.0,West,8.1,-,N/A,,Clear,260,2013-01-05 05:53:00
1:53 AM,32.0,18.0,56,30.02,10.0,West,10.4,-,N/A,,Clear,280,2013-01-05 06:53:00
2:53 AM,33.1,17.1,52,30.04,10.0,West,12.7,-,N/A,,Clear,280,2013-01-05 07:53:00
3:53 AM,32.0,17.1,54,30.07,10.0,WNW,5.8,-,N/A,,Clear,290,2013-01-05 08:53:00
4:53 AM,28.9,17.1,61,30.08,10.0,West,4.6,-,N/A,,Clear,280,2013-01-05 09:53:00
5:53 AM,28.9,17.1,61,30.12,10.0,SW,5.8,-,N/A,,Clear,230,2013-01-05 10:53:00
6:53 AM,28.9,17.1,61,30.16,10.0,WSW,10.4,-,N/A,,Clear,250,2013-01-05 11:53:00
7:53 AM,30.0,18.0,61,30.19,10.0,WSW,8.1,-,N/A,,Clear,250,2013-01-05 12:53:00
8:53 AM,35.1,19.0,52,30.23,10.0,West,13.8,-,N/A,,Clear,260,2013-01-05 13:53:00
9:53 AM,39.0,21.0,49,30.25,10.0,West,11.5,-,N/A,,Clear,260,2013-01-05 14:53:00
10:53 AM,42.1,21.0,43,30.24,10.0,West,10.4,-,N/A,,Clear,270,2013-01-05 15:53:00
11:53 AM,42.1,19.9,41,30.23,10.0,WNW,16.1,-,N/A,,Clear,300,2013-01-05 16:53:00
12:53 PM,43.0,21.0,42,30.22,10.0,WNW,15.0,21.9,N/A,,Clear,290,2013-01-05 17:53:00
1:53 PM,44.1,21.0,40,30.22,10.0,NNW,11.5,-,N/A,,Clear,330,2013-01-05 18:53:00
2:53 PM,44.1,21.9,42,30.23,10.0,Variable,6.9,-,N/A,,Clear,0,2013-01-05 19:53:00
3:53 PM,42.1,21.0,43,30.23,10.0,NW,6.9,-,N/A,,Clear,320,2013-01-05 20:53:00
4:53 PM,30.9,18.0,59,30.25,10.0,Calm,Calm,-,N/A,,Clear,0,2013-01-05 21:53:00
5:53 PM,26.1,16.0,66,30.27,10.0,Calm,Calm,-,N/A,,Clear,0,2013-01-05 22:53:00
6:53 PM,23.0,15.1,72,30.29,10.0,Calm,Calm,-,N/A,,Clear,0,2013-01-05 23:53:00
7:53 PM,21.9,15.1,75,30.28,10.0,Calm,Calm,-,N/A,,Clear,0,2013-01-06 00:53:00
8:53 PM,21.0,15.1,78,30.27,10.0,Calm,Calm,-,N/A,,Clear,0,2013-01-06 01:53:00
9:53 PM,19.9,14.0,78,30.26,10.0,Calm,Calm,-,N/A,,Clear,0,2013-01-06 02:53:00
10:53 PM,21.9,16.0,78,30.25,10.0,Calm,Calm,-,N/A,,Clear,0,2013-01-06 03:53:00
11:53 PM,25.0,19.9,81,30.23,10.0,Calm,Calm,-,N/A,,Scattered Clouds,0,2013-01-06 04:53:00